createdAt,value
2019-03-28T00:02:00.170Z,16.05
2019-03-28T00:04:33.947Z,17.67
2019-03-28T00:07:08.853Z,16.95
2019-03-28T00:09:42.840Z,17.87
2019-03-28T00:12:16.871Z,16.85
2019-03-28T00:14:50.441Z,17.65
2019-03-28T00:17:23.931Z,17.37
2019-03-28T00:19:57.497Z,15.83
2019-03-28T00:22:31.013Z,16.37
2019-03-28T00:25:04.476Z,15.67
2019-03-28T00:27:38.266Z,16.12
2019-03-28T00:30:12.568Z,15.60
2019-03-28T00:32:46.283Z,15.30
2019-03-28T00:35:25.717Z,16.03
2019-03-28T00:38:01.450Z,17.33
2019-03-28T00:40:34.944Z,15.87
2019-03-28T00:43:08.703Z,17.92
2019-03-28T00:45:44.470Z,16.83
2019-03-28T00:48:16.931Z,15.23
2019-03-28T00:50:50.529Z,15.83
2019-03-28T00:53:24.247Z,15.13
2019-03-28T00:55:58.116Z,15.60
2019-03-28T00:58:31.708Z,15.53
2019-03-28T01:01:05.506Z,16.80
2019-03-28T01:03:39.356Z,16.17
2019-03-28T01:06:13.009Z,13.65
2019-03-28T01:08:46.690Z,13.63
2019-03-28T01:11:22.552Z,14.20
2019-03-28T01:13:57.649Z,14.07
2019-03-28T01:16:31.199Z,14.40
2019-03-28T01:19:04.514Z,13.63
2019-03-28T01:21:40.086Z,13.18
2019-03-28T01:24:15.708Z,13.67
2019-03-28T01:27:08.999Z,12.20
2019-03-28T01:29:43.092Z,12.53
2019-03-28T01:32:17.215Z,12.93
2019-03-28T01:34:51.166Z,14.80
2019-03-28T01:37:25.081Z,12.20
2019-03-28T01:40:00.853Z,9.40
2019-03-28T01:42:34.840Z,9.60
2019-03-28T01:45:11.058Z,11.40
2019-03-28T01:47:45.333Z,10.50
2019-03-28T01:50:19.546Z,13.70
2019-03-28T01:52:53.283Z,8.10
2019-03-28T01:55:27.363Z,8.23
2019-03-28T01:58:03.060Z,9.77
2019-03-28T02:00:38.608Z,8.00
2019-03-28T02:03:16.475Z,6.65
2019-03-28T02:05:50.478Z,7.10
2019-03-28T02:08:25.109Z,6.57
2019-03-28T02:10:58.966Z,7.40
2019-03-28T02:13:32.722Z,6.60
2019-03-28T02:16:06.935Z,5.60
2019-03-28T02:18:41.082Z,6.10
2019-03-28T02:21:17.111Z,7.83
2019-03-28T02:23:50.820Z,8.43
2019-03-28T02:26:24.538Z,9.00
2019-03-28T02:28:59.569Z,9.20
2019-03-28T02:31:33.263Z,8.03
2019-03-28T02:34:08.397Z,8.20
2019-03-28T02:36:42.333Z,7.60
2019-03-28T02:39:16.879Z,6.93
2019-03-28T02:41:50.714Z,7.17
2019-03-28T02:44:24.356Z,6.53
2019-03-28T02:46:58.138Z,6.70
2019-03-28T02:49:31.859Z,5.97
2019-03-28T02:52:05.596Z,7.33
2019-03-28T02:54:40.972Z,8.28
2019-03-28T02:57:15.090Z,7.20
2019-03-28T02:59:48.746Z,6.97
2019-03-28T03:02:22.613Z,7.23
2019-03-28T03:04:56.943Z,4.80
2019-03-28T03:07:32.307Z,4.77
2019-03-28T03:10:09.572Z,5.93
2019-03-28T03:12:43.357Z,3.90
2019-03-28T03:15:17.145Z,5.47
2019-03-28T03:17:52.132Z,4.53
2019-03-28T03:20:27.766Z,3.63
2019-03-28T03:23:01.504Z,3.97
2019-03-28T03:25:35.797Z,5.30
2019-03-28T03:28:09.899Z,4.08
2019-03-28T03:30:43.949Z,3.80
2019-03-28T03:33:17.737Z,4.30
2019-03-28T03:35:53.502Z,4.20
2019-03-28T03:38:27.499Z,4.60
2019-03-28T03:41:01.704Z,4.80
2019-03-28T03:43:35.628Z,4.60
2019-03-28T03:46:09.687Z,5.42
2019-03-28T03:48:43.852Z,4.30
2019-03-28T03:51:17.368Z,4.40
2019-03-28T03:53:52.759Z,3.92
2019-03-28T03:56:26.604Z,4.20
2019-03-28T03:59:00.665Z,4.43
2019-03-28T04:01:36.683Z,4.17
2019-03-28T04:04:11.635Z,4.47
2019-03-28T04:06:51.799Z,4.93
2019-03-28T04:09:26.054Z,4.80
2019-03-28T04:12:03.245Z,5.40
2019-03-28T04:14:36.979Z,4.80
2019-03-28T04:17:12.345Z,5.10
2019-03-28T04:19:46.268Z,4.67
2019-03-28T04:22:20.646Z,5.83
2019-03-28T04:24:54.668Z,6.17
2019-03-28T04:27:28.745Z,5.30
2019-03-28T04:30:02.644Z,5.20
2019-03-28T04:32:36.485Z,5.70
2019-03-28T04:35:10.443Z,4.80
2019-03-28T04:37:44.312Z,5.77
2019-03-28T04:40:18.015Z,4.83
2019-03-28T04:42:52.591Z,4.27
2019-03-28T04:45:27.426Z,4.30
2019-03-28T04:48:01.784Z,4.85
2019-03-28T04:50:35.701Z,4.40
2019-03-28T04:53:10.047Z,3.92
2019-03-28T04:55:44.000Z,3.53
2019-03-28T04:58:21.335Z,3.37
2019-03-28T05:00:53.223Z,7.08
2019-03-28T05:03:26.902Z,3.40
2019-03-28T05:06:02.205Z,3.03
2019-03-28T05:08:35.790Z,3.30
2019-03-28T05:11:09.465Z,2.90
2019-03-28T05:13:46.619Z,2.80
2019-03-28T05:16:20.431Z,3.00
2019-03-28T05:18:54.158Z,2.93
2019-03-28T05:21:28.325Z,2.93
2019-03-28T05:24:02.177Z,3.40
2019-03-28T05:26:36.467Z,2.97
2019-03-28T05:29:10.946Z,3.15
2019-03-28T05:31:46.410Z,2.97
2019-03-28T05:34:20.233Z,4.13
2019-03-28T05:36:53.922Z,6.80
2019-03-28T05:39:27.675Z,3.00
2019-03-28T05:42:01.698Z,3.30
2019-03-28T05:44:37.537Z,3.57
2019-03-28T05:47:11.502Z,2.93
2019-03-28T05:49:47.188Z,3.97
2019-03-28T05:52:21.022Z,2.93
2019-03-28T05:54:57.572Z,2.87
2019-03-28T05:57:31.239Z,2.83
2019-03-28T06:00:06.038Z,3.33
2019-03-28T06:02:39.786Z,3.10
2019-03-28T06:05:14.301Z,3.17
2019-03-28T06:07:48.254Z,3.30
2019-03-28T06:10:22.567Z,3.80
2019-03-28T06:12:56.859Z,4.03
2019-03-28T06:15:31.823Z,3.60
2019-03-28T06:18:05.833Z,4.50
2019-03-28T06:20:39.655Z,4.77
2019-03-28T06:23:13.548Z,4.05
2019-03-28T06:25:47.324Z,4.90
2019-03-28T06:28:20.888Z,4.80
2019-03-28T06:30:55.944Z,4.60
2019-03-28T06:33:30.352Z,5.42
2019-03-28T06:36:04.132Z,4.50
2019-03-28T06:38:38.510Z,4.58
2019-03-28T06:41:12.343Z,3.10
2019-03-28T06:43:46.212Z,3.60
2019-03-28T06:46:19.971Z,2.90
2019-03-28T06:48:55.372Z,3.53
2019-03-28T06:51:31.334Z,3.03
2019-03-28T06:54:15.007Z,2.85
2019-03-28T06:56:48.825Z,3.13
2019-03-28T06:59:22.518Z,3.22
2019-03-28T07:01:56.580Z,3.20
2019-03-28T07:04:30.912Z,4.00
2019-03-28T07:07:05.057Z,3.80
2019-03-28T07:09:39.961Z,3.60
2019-03-28T07:12:13.522Z,3.25
2019-03-28T07:14:47.289Z,4.50
2019-03-28T07:17:22.826Z,2.90
2019-03-28T07:19:56.917Z,6.67
2019-03-28T07:22:31.070Z,3.40
2019-03-28T07:25:04.750Z,3.43
2019-03-28T07:27:38.475Z,3.50
2019-03-28T07:33:06.705Z,3.10
2019-03-28T07:35:42.123Z,4.10
2019-03-28T07:38:16.773Z,3.80
2019-03-28T07:40:51.017Z,3.87
2019-03-28T07:43:25.281Z,4.28
2019-03-28T07:45:59.429Z,5.17
2019-03-28T07:48:33.277Z,5.13
2019-03-28T07:51:06.618Z,4.60
2019-03-28T07:53:40.574Z,3.22
2019-03-28T07:56:14.818Z,3.27
2019-03-28T07:58:49.013Z,3.35
2019-03-28T08:01:23.360Z,6.27
2019-03-28T08:03:57.802Z,4.03
2019-03-28T08:06:32.027Z,3.70
2019-03-28T08:09:09.891Z,3.27
2019-03-28T08:11:44.244Z,3.60
2019-03-28T08:14:20.941Z,3.20
2019-03-28T08:16:56.490Z,3.70
2019-03-28T08:19:32.771Z,3.70
2019-03-28T08:22:08.758Z,3.60
2019-03-28T08:24:44.153Z,3.80
2019-03-28T08:27:19.645Z,3.10
2019-03-28T08:29:57.688Z,3.37
2019-03-28T08:32:30.311Z,3.13
2019-03-28T08:35:04.101Z,3.53
2019-03-28T08:37:39.256Z,3.60
2019-03-28T08:40:15.494Z,3.37
2019-03-28T08:42:50.863Z,3.47
2019-03-28T08:45:25.064Z,3.20
2019-03-28T08:48:01.067Z,3.90
2019-03-28T08:50:34.854Z,3.70
2019-03-28T08:53:08.781Z,3.30
2019-03-28T08:55:43.486Z,3.87
2019-03-28T08:58:18.820Z,4.03
2019-03-28T09:00:54.060Z,4.30
2019-03-28T09:03:29.873Z,3.70
2019-03-28T09:06:05.574Z,3.70
2019-03-28T09:08:39.629Z,3.70
2019-03-28T09:11:14.313Z,4.50
2019-03-28T09:13:49.092Z,4.30
2019-03-28T09:16:24.434Z,3.17
2019-03-28T09:19:00.160Z,3.63
2019-03-28T09:21:35.655Z,4.03
2019-03-28T09:24:09.550Z,3.97
2019-03-28T09:26:44.156Z,4.40
2019-03-28T09:29:18.962Z,4.30
2019-03-28T09:31:53.044Z,4.07
2019-03-28T09:34:28.463Z,4.70
2019-03-28T09:37:03.367Z,5.50
2019-03-28T09:39:38.706Z,4.50
2019-03-28T09:42:12.399Z,4.47
2019-03-28T09:44:46.971Z,4.57
2019-03-28T09:47:21.410Z,5.03
2019-03-28T09:50:03.066Z,5.37
2019-03-28T09:52:37.473Z,5.72
2019-03-28T09:55:11.813Z,6.30
2019-03-28T09:57:46.551Z,5.20
2019-03-28T10:00:21.580Z,6.00
2019-03-28T10:02:56.503Z,5.37
2019-03-28T10:05:32.109Z,6.63
2019-03-28T10:08:07.294Z,6.53
2019-03-28T10:10:42.182Z,4.55
2019-03-28T10:13:17.260Z,4.57
2019-03-28T10:18:46.824Z,5.50
2019-03-28T10:21:25.442Z,6.47
2019-03-28T10:24:00.544Z,6.23
2019-03-28T10:26:35.682Z,6.13
2019-03-28T10:29:10.494Z,6.85
2019-03-28T10:31:47.052Z,6.42
2019-03-28T10:34:25.548Z,8.25
2019-03-28T10:37:01.433Z,7.83
2019-03-28T10:39:36.140Z,8.63
2019-03-28T10:42:17.700Z,9.00
2019-03-28T10:44:53.652Z,9.47
2019-03-28T10:47:30.345Z,9.27
2019-03-28T10:50:07.280Z,9.23
2019-03-28T10:52:43.439Z,11.10
2019-03-28T10:55:21.711Z,10.53
2019-03-28T10:57:59.217Z,10.50
2019-03-28T11:00:36.958Z,10.57
2019-03-28T11:03:12.568Z,10.50
2019-03-28T11:05:50.494Z,11.65
2019-03-28T11:08:28.707Z,12.10
2019-03-28T11:11:02.357Z,11.43
2019-03-28T11:13:37.649Z,12.27
2019-03-28T11:16:15.230Z,11.85
2019-03-28T11:18:52.612Z,12.47
2019-03-28T11:21:28.096Z,13.77
2019-03-28T11:24:05.251Z,13.40
2019-03-28T11:26:42.769Z,12.70
2019-03-28T11:29:18.737Z,13.33
2019-03-28T11:31:55.094Z,15.27
2019-03-28T11:34:30.506Z,14.90
2019-03-28T11:37:11.347Z,14.87
2019-03-28T11:39:44.594Z,14.20
2019-03-28T11:42:23.661Z,14.50
2019-03-28T11:44:59.553Z,15.00
2019-03-28T11:47:41.140Z,15.67
2019-03-28T11:50:18.553Z,15.03
2019-03-28T11:53:04.515Z,14.87
2019-03-28T11:55:48.528Z,14.60
2019-03-28T11:58:22.003Z,14.07
2019-03-28T12:00:57.503Z,15.13
2019-03-28T12:03:39.611Z,14.30
2019-03-28T12:06:15.121Z,13.93
2019-03-28T12:08:55.769Z,14.33
2019-03-28T12:11:29.241Z,13.70
2019-03-28T12:14:06.205Z,14.68
2019-03-28T12:16:48.310Z,13.77
2019-03-28T12:19:24.981Z,14.00
2019-03-28T12:22:05.278Z,14.20
2019-03-28T12:24:42.485Z,14.38
2019-03-28T12:27:20.225Z,14.33
2019-03-28T12:30:01.109Z,14.80
2019-03-28T12:32:37.239Z,14.90
2019-03-28T12:41:02.964Z,14.23
2019-03-28T12:43:39.529Z,15.50
2019-03-28T12:46:18.095Z,16.37
2019-03-28T12:48:53.616Z,15.67
2019-03-28T12:51:31.167Z,15.87
2019-03-28T12:54:09.190Z,16.73
2019-03-28T12:56:50.107Z,16.60
2019-03-28T12:59:27.727Z,17.57
2019-03-28T13:02:05.805Z,17.73
2019-03-28T13:04:41.484Z,17.73
2019-03-28T13:07:17.034Z,17.35
2019-03-28T13:09:52.621Z,18.70
2019-03-28T13:12:34.343Z,17.53
2019-03-28T13:15:10.898Z,18.60
2019-03-28T13:17:46.552Z,18.33
2019-03-28T13:20:27.312Z,17.85
2019-03-28T13:23:04.632Z,18.07
2019-03-28T13:25:42.569Z,18.23
2019-03-28T13:28:23.292Z,18.80
2019-03-28T13:30:59.686Z,18.97
2019-03-28T13:33:37.441Z,19.27
2019-03-28T13:36:13.021Z,18.63
2019-03-28T13:38:53.191Z,19.12
2019-03-28T13:41:28.541Z,21.07
2019-03-28T13:44:03.824Z,21.67
2019-03-28T13:46:42.075Z,21.33
2019-03-28T13:49:18.366Z,21.37
2019-03-28T13:51:58.808Z,21.87
2019-03-28T13:54:35.088Z,22.87
2019-03-28T13:57:10.792Z,22.37
2019-03-28T13:59:47.377Z,21.53
2019-03-28T14:02:22.419Z,20.23
2019-03-28T14:04:59.018Z,20.57
2019-03-28T14:07:35.819Z,22.07
2019-03-28T14:10:13.455Z,21.40
2019-03-28T14:12:47.884Z,20.92
2019-03-28T14:15:25.336Z,19.70
2019-03-28T14:18:01.545Z,19.97
2019-03-28T14:20:36.835Z,20.30
2019-03-28T14:23:10.920Z,20.67
2019-03-28T14:25:46.667Z,19.92
2019-03-28T14:28:22.687Z,20.27
2019-03-28T14:31:00.678Z,20.50
2019-03-28T14:33:34.436Z,19.60
2019-03-28T14:36:08.949Z,19.70
2019-03-28T14:38:43.611Z,20.50
2019-03-28T14:41:18.094Z,20.80
2019-03-28T14:43:53.389Z,20.47
2019-03-28T14:46:29.604Z,19.67
2019-03-28T14:49:05.572Z,20.10
2019-03-28T14:51:40.010Z,19.37
2019-03-28T14:54:15.675Z,20.08
2019-03-28T14:56:51.482Z,20.20
2019-03-28T14:59:32.381Z,18.93
2019-03-28T15:02:03.905Z,19.13
2019-03-28T15:04:39.459Z,19.63
2019-03-28T15:07:13.784Z,18.45
2019-03-28T15:09:49.954Z,18.02
2019-03-28T15:12:29.120Z,18.87
2019-03-28T15:15:03.619Z,17.77
2019-03-28T15:17:38.172Z,18.87
2019-03-28T15:20:12.634Z,18.03
2019-03-28T15:22:47.092Z,17.80
2019-03-28T15:25:23.064Z,17.57
2019-03-28T15:27:57.166Z,18.13
2019-03-28T15:30:31.483Z,17.00
2019-03-28T15:33:05.968Z,17.60
2019-03-28T15:35:39.567Z,17.77
2019-03-28T15:38:15.443Z,18.67
2019-03-28T15:40:49.780Z,18.60
2019-03-28T15:43:26.422Z,18.00
2019-03-28T15:46:01.006Z,17.50
2019-03-28T15:48:35.666Z,17.43
2019-03-28T15:51:12.188Z,17.97
2019-03-28T15:53:46.975Z,17.27
2019-03-28T15:56:23.314Z,16.73
2019-03-28T15:58:59.093Z,16.97
2019-03-28T16:01:33.612Z,16.20
2019-03-28T16:04:11.772Z,17.00
2019-03-28T16:06:47.724Z,17.13
2019-03-28T16:09:23.725Z,16.83
2019-03-28T16:12:02.831Z,16.85
2019-03-28T16:14:34.380Z,16.33
2019-03-28T16:17:08.780Z,17.67
2019-03-28T16:19:45.163Z,16.60
2019-03-28T16:22:22.369Z,17.97
2019-03-28T16:24:55.094Z,15.97
2019-03-28T16:27:29.591Z,15.40
2019-03-28T16:30:04.045Z,16.67
2019-03-28T16:32:38.064Z,16.30
2019-03-28T16:35:12.080Z,16.87
2019-03-28T16:37:46.199Z,17.67
2019-03-28T16:40:20.475Z,16.67
2019-03-28T16:42:55.676Z,16.57
2019-03-28T16:45:30.084Z,16.80
2019-03-28T16:48:04.709Z,17.53
2019-03-28T16:50:38.832Z,15.70
2019-03-28T16:53:14.914Z,16.53
2019-03-28T16:55:49.321Z,17.02
2019-03-28T16:58:23.176Z,17.13
2019-03-28T17:00:57.006Z,17.35
2019-03-28T17:03:31.105Z,17.15
2019-03-28T17:06:07.688Z,17.10
2019-03-28T17:08:43.945Z,16.80
2019-03-28T17:11:18.570Z,17.17
2019-03-28T17:13:54.746Z,17.13
2019-03-28T17:16:29.682Z,17.20
2019-03-28T17:19:03.547Z,17.17
2019-03-28T17:21:38.024Z,16.53
2019-03-28T17:24:11.836Z,17.83
2019-03-28T17:26:47.393Z,17.15
2019-03-28T17:29:23.469Z,16.87
2019-03-28T17:31:59.632Z,16.93
2019-03-28T17:34:37.135Z,16.37
2019-03-28T17:37:10.977Z,17.03
2019-03-28T17:39:46.140Z,17.03
2019-03-28T17:42:19.738Z,17.25
2019-03-28T17:44:53.467Z,17.10
2019-03-28T17:47:27.112Z,16.30
2019-03-28T17:50:02.307Z,16.47
2019-03-28T17:52:35.837Z,16.87
2019-03-28T17:55:10.439Z,17.23
2019-03-28T17:57:45.816Z,16.70
2019-03-28T18:00:19.993Z,16.70
2019-03-28T18:02:53.986Z,16.87
2019-03-28T18:05:27.736Z,16.23
2019-03-28T18:08:03.610Z,17.33
2019-03-28T18:10:38.483Z,16.97
2019-03-28T18:13:13.573Z,16.17
2019-03-28T18:15:48.740Z,16.55
2019-03-28T18:18:26.267Z,17.60
2019-03-28T18:21:00.582Z,16.20
2019-03-28T18:23:34.798Z,16.57
2019-03-28T18:26:09.554Z,16.23
2019-03-28T18:28:45.731Z,17.83
2019-03-28T18:31:19.563Z,16.57
2019-03-28T18:33:58.329Z,16.90
2019-03-28T18:36:34.224Z,16.65
2019-03-28T18:39:08.872Z,16.23
2019-03-28T18:41:42.580Z,15.53
2019-03-28T18:44:17.461Z,15.78
2019-03-28T18:46:52.771Z,16.45
2019-03-28T18:49:28.705Z,17.00
2019-03-28T18:52:07.218Z,16.63
2019-03-28T18:54:40.320Z,16.17
2019-03-28T18:57:14.845Z,16.80
2019-03-28T18:59:49.807Z,16.93
2019-03-28T19:02:23.614Z,16.73
2019-03-28T19:04:57.473Z,16.95
2019-03-28T19:07:31.135Z,17.73
2019-03-28T19:10:05.713Z,16.80
2019-03-28T19:12:41.089Z,17.40
2019-03-28T19:15:15.810Z,17.33
2019-03-28T19:17:49.953Z,17.07
2019-03-28T19:20:25.469Z,17.10
2019-03-28T19:22:59.113Z,16.80
2019-03-28T19:25:35.340Z,16.87
2019-03-28T19:28:11.435Z,19.03
2019-03-28T19:30:45.451Z,18.67
2019-03-28T19:33:19.279Z,17.70
2019-03-28T19:35:55.857Z,17.95
2019-03-28T19:38:30.464Z,17.73
2019-03-28T19:41:04.470Z,18.30
2019-03-28T19:43:40.133Z,17.90
2019-03-28T19:46:13.901Z,18.13
2019-03-28T19:48:47.649Z,18.43
2019-03-28T19:51:21.215Z,18.50
2019-03-28T19:53:55.316Z,19.33
2019-03-28T19:56:29.127Z,18.87
2019-03-28T19:59:02.740Z,18.73
2019-03-28T20:01:37.563Z,19.40
2019-03-28T20:04:11.487Z,18.62
2019-03-28T20:06:45.029Z,19.50
2019-03-28T20:09:18.540Z,19.37
2019-03-28T20:11:52.123Z,19.40
2019-03-28T20:14:25.980Z,19.97
2019-03-28T20:16:59.873Z,19.02
2019-03-28T20:19:33.558Z,19.60
2019-03-28T20:22:07.078Z,20.27
2019-03-28T20:24:41.756Z,19.82
2019-03-28T20:27:15.549Z,19.77
2019-03-28T20:29:49.309Z,20.67
2019-03-28T20:32:22.941Z,19.20
2019-03-28T20:34:56.554Z,19.60
2019-03-28T20:37:30.194Z,20.87
2019-03-28T20:40:03.807Z,21.60
2019-03-28T20:42:37.402Z,21.77
2019-03-28T20:45:12.681Z,23.52
2019-03-28T20:47:46.423Z,22.30
2019-03-28T20:50:20.425Z,22.70
2019-03-28T20:52:54.310Z,22.15
2019-03-28T20:55:27.986Z,21.80
2019-03-28T20:58:02.816Z,22.50
2019-03-28T21:00:48.056Z,21.93
2019-03-28T21:03:22.961Z,21.87
2019-03-28T21:05:56.450Z,21.73
2019-03-28T21:08:30.338Z,22.80
2019-03-28T21:11:04.124Z,22.77
2019-03-28T21:13:38.114Z,23.33
2019-03-28T21:16:12.135Z,21.82
2019-03-28T21:18:45.463Z,22.73
2019-03-28T21:21:19.010Z,22.67
2019-03-28T21:23:52.726Z,23.43
2019-03-28T21:26:26.352Z,25.63
2019-03-28T21:28:59.884Z,24.23
2019-03-28T21:31:33.627Z,23.53
2019-03-28T21:34:07.745Z,23.07
2019-03-28T21:36:42.763Z,24.60
2019-03-28T21:39:17.107Z,23.22
2019-03-28T21:41:50.594Z,25.17
2019-03-28T21:44:24.197Z,23.83
2019-03-28T21:46:58.767Z,24.30
2019-03-28T21:49:32.686Z,24.70
2019-03-28T21:52:07.477Z,24.33
2019-03-28T21:54:41.802Z,23.53
2019-03-28T21:57:15.968Z,25.07
2019-03-28T21:59:49.643Z,24.13
2019-03-28T22:02:23.109Z,26.13
2019-03-28T22:04:56.585Z,24.90
2019-03-28T22:07:30.214Z,24.43
2019-03-28T22:10:04.226Z,24.43
2019-03-28T22:12:37.757Z,25.17
2019-03-28T22:15:11.964Z,25.43
2019-03-28T22:17:47.257Z,25.48
2019-03-28T22:20:20.766Z,25.48
2019-03-28T22:22:55.117Z,25.45
2019-03-28T22:25:30.401Z,25.33
2019-03-28T22:28:04.535Z,24.03
2019-03-28T22:30:38.980Z,26.17
2019-03-28T22:33:13.557Z,25.57
2019-03-28T22:35:47.547Z,25.67
2019-03-28T22:38:21.190Z,26.00
2019-03-28T22:40:54.991Z,26.27
2019-03-28T22:43:30.012Z,27.97
2019-03-28T22:46:05.559Z,29.10
2019-03-28T22:48:39.909Z,31.37
2019-03-28T22:51:13.595Z,30.20
2019-03-28T22:53:47.207Z,30.73
2019-03-28T22:56:21.747Z,31.20
2019-03-28T22:58:55.455Z,29.43
2019-03-28T23:01:29.445Z,28.97
2019-03-28T23:04:03.259Z,30.73
2019-03-28T23:06:38.091Z,31.30
2019-03-28T23:09:13.184Z,31.40
2019-03-28T23:11:54.676Z,31.93
2019-03-28T23:14:28.707Z,29.23
2019-03-28T23:17:02.387Z,30.57
2019-03-28T23:19:36.283Z,29.23
2019-03-28T23:22:10.118Z,29.60
2019-03-28T23:24:44.181Z,26.93
2019-03-28T23:27:18.658Z,27.20
2019-03-28T23:29:52.732Z,26.93
2019-03-28T23:32:26.583Z,26.93
2019-03-28T23:35:00.924Z,28.87
2019-03-28T23:37:35.072Z,29.23
2019-03-28T23:40:10.209Z,29.53
2019-03-28T23:42:44.556Z,29.55
2019-03-28T23:45:19.159Z,29.40
2019-03-28T23:47:55.176Z,28.97
2019-03-28T23:50:29.541Z,29.63
2019-03-28T23:53:05.536Z,28.53
2019-03-28T23:55:39.474Z,27.17
2019-03-28T23:58:13.311Z,25.43
